createdAt,value
2018-10-03T00:00:39.536Z,0
2018-10-03T00:01:47.607Z,0
2018-10-03T00:02:55.665Z,0
2018-10-03T00:04:03.722Z,0
2018-10-03T00:05:11.773Z,0
2018-10-03T00:06:19.843Z,0
2018-10-03T00:07:27.923Z,0
2018-10-03T00:08:35.981Z,0
2018-10-03T00:09:44.046Z,0
2018-10-03T00:10:52.098Z,0
2018-10-03T00:12:00.158Z,0
2018-10-03T00:13:08.247Z,0
2018-10-03T00:14:16.288Z,0
2018-10-03T00:15:24.370Z,0
2018-10-03T00:16:32.410Z,0
2018-10-03T00:17:40.477Z,0
2018-10-03T00:18:48.538Z,0
2018-10-03T00:19:56.612Z,0
2018-10-03T00:21:04.672Z,0
2018-10-03T00:22:12.699Z,0
2018-10-03T00:23:20.850Z,0
2018-10-03T00:24:28.860Z,0
2018-10-03T00:25:36.922Z,0
2018-10-03T00:26:44.982Z,0
2018-10-03T00:27:53.020Z,0
2018-10-03T00:29:01.116Z,0
2018-10-03T00:30:09.174Z,0
2018-10-03T00:31:17.232Z,0
2018-10-03T00:32:25.306Z,0
2018-10-03T00:33:33.344Z,0
2018-10-03T00:34:41.463Z,0
2018-10-03T00:35:49.482Z,0
2018-10-03T00:36:57.557Z,0
2018-10-03T00:38:05.622Z,0
2018-10-03T00:39:13.689Z,0
2018-10-03T00:40:21.755Z,0
2018-10-03T00:41:29.809Z,0
2018-10-03T00:42:37.885Z,0
2018-10-03T00:43:45.932Z,0
2018-10-03T00:44:53.997Z,0
2018-10-03T00:46:02.069Z,0
2018-10-03T00:47:10.127Z,0
2018-10-03T00:48:18.184Z,0
2018-10-03T00:49:26.258Z,0
2018-10-03T00:50:34.324Z,0
2018-10-03T00:51:42.377Z,0
2018-10-03T00:52:50.441Z,0
2018-10-03T00:53:58.511Z,0
2018-10-03T00:55:06.574Z,0
2018-10-03T00:56:14.640Z,0
2018-10-03T00:57:22.682Z,0
2018-10-03T00:58:30.771Z,0
2018-10-03T00:59:38.859Z,0
2018-10-03T01:00:46.899Z,0
2018-10-03T01:01:54.952Z,0
2018-10-03T01:03:02.996Z,0
2018-10-03T01:04:11.080Z,0
2018-10-03T01:05:19.148Z,0
2018-10-03T01:06:27.200Z,0
2018-10-03T01:07:35.267Z,0
2018-10-03T01:08:43.295Z,0
2018-10-03T01:09:51.395Z,0
2018-10-03T01:10:59.464Z,0
2018-10-03T01:12:07.522Z,0
2018-10-03T01:13:15.591Z,0
2018-10-03T01:14:23.631Z,0
2018-10-03T01:15:31.717Z,0
2018-10-03T01:16:39.769Z,0
2018-10-03T01:17:47.845Z,0
2018-10-03T01:18:55.908Z,0
2018-10-03T01:20:03.972Z,0
2018-10-03T01:21:12.024Z,0
2018-10-03T01:22:20.096Z,0
2018-10-03T01:23:28.161Z,0
2018-10-03T01:24:36.222Z,0
2018-10-03T01:25:44.293Z,0
2018-10-03T01:26:52.344Z,0
2018-10-03T01:28:00.415Z,0
2018-10-03T01:29:08.516Z,0
2018-10-03T01:30:16.534Z,0
2018-10-03T01:31:24.612Z,0
2018-10-03T01:32:32.649Z,0
2018-10-03T01:33:40.735Z,0
2018-10-03T01:34:48.789Z,0
2018-10-03T01:35:56.846Z,0
2018-10-03T01:37:04.918Z,0
2018-10-03T01:38:12.969Z,0
2018-10-03T01:39:21.049Z,0
2018-10-03T01:40:29.118Z,0
2018-10-03T01:41:37.173Z,0
2018-10-03T01:42:45.225Z,0
2018-10-03T01:43:53.273Z,0
2018-10-03T01:45:01.369Z,0
2018-10-03T01:46:09.436Z,0
2018-10-03T01:47:17.491Z,0
2018-10-03T01:48:25.557Z,0
2018-10-03T01:49:33.601Z,0
2018-10-03T01:50:41.682Z,0
2018-10-03T01:51:49.747Z,0
2018-10-03T01:52:57.811Z,0
2018-10-03T01:54:05.881Z,0
2018-10-03T01:55:13.933Z,0
2018-10-03T01:56:21.996Z,0
2018-10-03T01:57:30.054Z,0
2018-10-03T01:58:38.125Z,0
2018-10-03T01:59:46.188Z,0
2018-10-03T02:00:54.248Z,0
2018-10-03T02:02:02.316Z,0
2018-10-03T02:03:10.395Z,0
2018-10-03T02:04:18.454Z,0
2018-10-03T02:05:26.507Z,0
2018-10-03T02:06:34.564Z,0
2018-10-03T02:07:42.645Z,0
2018-10-03T02:08:50.698Z,0
2018-10-03T02:09:58.778Z,0
2018-10-03T02:11:06.820Z,0
2018-10-03T02:12:14.899Z,0
2018-10-03T02:13:22.921Z,0
2018-10-03T02:14:31.018Z,0
2018-10-03T02:15:39.077Z,0
2018-10-03T02:16:47.142Z,0
2018-10-03T02:17:55.210Z,0
2018-10-03T02:19:03.243Z,0
2018-10-03T02:20:11.324Z,0
2018-10-03T02:21:19.432Z,0
2018-10-03T02:22:27.453Z,0
2018-10-03T02:23:35.513Z,0
2018-10-03T02:24:43.577Z,0
2018-10-03T02:25:51.648Z,0
2018-10-03T02:26:59.705Z,0
2018-10-03T02:28:07.769Z,0
2018-10-03T02:29:15.839Z,0
2018-10-03T02:30:23.899Z,0
2018-10-03T02:31:31.965Z,0
2018-10-03T02:32:40.022Z,0
2018-10-03T02:33:48.125Z,0
2018-10-03T02:34:56.160Z,0
2018-10-03T02:36:04.216Z,0
2018-10-03T02:37:12.275Z,0
2018-10-03T02:38:20.342Z,0
2018-10-03T02:39:28.403Z,0
2018-10-03T02:40:36.472Z,0
2018-10-03T02:41:44.521Z,0
2018-10-03T02:42:52.588Z,0
2018-10-03T02:44:00.653Z,0
2018-10-03T02:45:08.727Z,0
2018-10-03T02:46:16.783Z,0
2018-10-03T02:47:24.842Z,0
2018-10-03T02:48:32.894Z,0
2018-10-03T02:49:40.980Z,0
2018-10-03T02:50:49.047Z,0
2018-10-03T02:51:57.091Z,0
2018-10-03T02:53:05.167Z,0
2018-10-03T02:54:13.230Z,0
2018-10-03T02:55:21.294Z,0
2018-10-03T02:56:29.352Z,0
2018-10-03T02:57:37.424Z,0
2018-10-03T02:58:45.481Z,0
2018-10-03T02:59:53.517Z,0
2018-10-03T03:01:01.595Z,0
2018-10-03T03:02:09.678Z,0
2018-10-03T03:03:17.737Z,0
2018-10-03T03:04:25.791Z,0
2018-10-03T03:05:33.847Z,0
2018-10-03T03:06:41.925Z,0
2018-10-03T03:07:49.994Z,0
2018-10-03T03:08:58.080Z,0
2018-10-03T03:10:06.117Z,0
2018-10-03T03:11:14.171Z,0
2018-10-03T03:12:22.240Z,0
2018-10-03T03:13:30.297Z,0
2018-10-03T03:14:38.367Z,0
2018-10-03T03:15:46.428Z,0
2018-10-03T03:16:54.495Z,0
2018-10-03T03:18:02.533Z,0
2018-10-03T03:19:10.631Z,0
2018-10-03T03:20:18.694Z,0
2018-10-03T03:21:26.751Z,0
2018-10-03T03:22:34.813Z,0
2018-10-03T03:23:42.844Z,0
2018-10-03T03:24:50.937Z,0
2018-10-03T03:25:59.002Z,0
2018-10-03T03:27:07.072Z,0
2018-10-03T03:28:15.119Z,0
2018-10-03T03:29:23.164Z,0
2018-10-03T03:30:31.256Z,0
2018-10-03T03:31:39.319Z,0
2018-10-03T03:32:47.379Z,0
2018-10-03T03:33:55.447Z,0
2018-10-03T03:35:03.485Z,0
2018-10-03T03:36:11.569Z,0
2018-10-03T03:37:19.649Z,0
2018-10-03T03:38:27.697Z,0
2018-10-03T03:39:35.760Z,0
2018-10-03T03:40:43.830Z,0
2018-10-03T03:41:51.898Z,0
2018-10-03T03:43:00.015Z,0
2018-10-03T03:44:08.019Z,0
2018-10-03T03:45:16.087Z,0
2018-10-03T03:46:24.140Z,0
2018-10-03T03:47:32.201Z,0
2018-10-03T03:48:40.267Z,0
2018-10-03T03:49:48.333Z,0
2018-10-03T03:50:56.400Z,0
2018-10-03T03:52:04.448Z,0
2018-10-03T03:53:12.517Z,0
2018-10-03T03:54:20.598Z,0
2018-10-03T03:55:28.647Z,0
2018-10-03T03:56:36.719Z,0
2018-10-03T03:57:44.778Z,0
2018-10-03T03:58:52.816Z,0
2018-10-03T04:00:00.905Z,0
2018-10-03T04:01:08.972Z,0
2018-10-03T04:02:17.036Z,0
2018-10-03T04:03:25.149Z,0
2018-10-03T04:04:33.133Z,0
2018-10-03T04:05:41.222Z,0
2018-10-03T04:06:49.281Z,0
2018-10-03T04:07:57.352Z,0
2018-10-03T04:09:05.422Z,0
2018-10-03T04:10:13.459Z,0
2018-10-03T04:11:21.538Z,0
2018-10-03T04:12:29.586Z,0
2018-10-03T04:13:37.674Z,0
2018-10-03T04:14:45.722Z,0
2018-10-03T04:15:53.779Z,0
2018-10-03T04:17:01.859Z,0
2018-10-03T04:18:09.905Z,0
2018-10-03T04:19:17.989Z,0
2018-10-03T04:20:26.041Z,0
2018-10-03T04:21:34.123Z,0
2018-10-03T04:22:42.167Z,0
2018-10-03T04:23:50.247Z,0
2018-10-03T04:24:58.304Z,0
2018-10-03T04:26:06.364Z,0
2018-10-03T04:27:14.418Z,0
2018-10-03T04:28:22.487Z,0
2018-10-03T04:29:30.548Z,0
2018-10-03T04:30:38.620Z,0
2018-10-03T04:31:46.687Z,0
2018-10-03T04:32:54.747Z,0
2018-10-03T04:34:02.776Z,0
2018-10-03T04:35:10.889Z,0
2018-10-03T04:36:19.636Z,0
2018-10-03T04:37:27.422Z,0
2018-10-03T04:38:35.660Z,0
2018-10-03T04:39:43.090Z,0
2018-10-03T04:40:51.179Z,0
2018-10-03T04:41:59.241Z,0
2018-10-03T04:43:07.641Z,0
2018-10-03T04:44:15.684Z,0
2018-10-03T04:45:23.408Z,0
2018-10-03T04:46:31.502Z,0
2018-10-03T04:47:39.561Z,0
2018-10-03T04:48:47.668Z,0
2018-10-03T04:49:55.682Z,0
2018-10-03T04:51:03.752Z,0
2018-10-03T04:52:11.797Z,0
2018-10-03T04:53:19.864Z,0
2018-10-03T04:54:28.653Z,0
2018-10-03T04:55:36.000Z,0
2018-10-03T04:56:44.061Z,0
2018-10-03T04:57:52.136Z,0
2018-10-03T04:59:00.173Z,0
2018-10-03T05:00:08.242Z,0
2018-10-03T05:01:16.316Z,4
2018-10-03T05:02:24.363Z,4
2018-10-03T05:03:32.446Z,0
2018-10-03T05:04:40.502Z,4
2018-10-03T05:05:48.563Z,4
2018-10-03T05:06:56.651Z,4
2018-10-03T05:08:04.684Z,4
2018-10-03T05:09:12.713Z,4
2018-10-03T05:10:20.801Z,4
2018-10-03T05:11:28.946Z,8
2018-10-03T05:12:36.930Z,12
2018-10-03T05:13:44.988Z,16
2018-10-03T05:14:53.039Z,16
2018-10-03T05:16:01.133Z,20
2018-10-03T05:17:09.187Z,24
2018-10-03T05:18:17.257Z,24
2018-10-03T05:19:25.317Z,24
2018-10-03T05:20:33.345Z,28
2018-10-03T05:21:41.431Z,28
2018-10-03T05:22:49.492Z,32
2018-10-03T05:23:58.070Z,36
2018-10-03T05:25:06.287Z,40
2018-10-03T05:26:14.402Z,44
2018-10-03T05:27:22.424Z,44
2018-10-03T05:28:31.193Z,48
2018-10-03T05:29:38.584Z,52
2018-10-03T05:30:46.012Z,56
2018-10-03T05:31:54.002Z,60
2018-10-03T05:33:02.068Z,60
2018-10-03T05:34:10.300Z,64
2018-10-03T05:35:18.182Z,68
2018-10-03T05:36:26.887Z,76
2018-10-03T05:37:34.316Z,80
2018-10-03T05:38:42.899Z,84
2018-10-03T05:39:50.855Z,92
2018-10-03T05:40:59.048Z,96
2018-10-03T05:42:06.658Z,104
2018-10-03T05:43:15.272Z,124
2018-10-03T05:44:23.208Z,152
2018-10-03T05:45:30.761Z,172
2018-10-03T05:46:38.820Z,192
2018-10-03T05:47:46.886Z,212
2018-10-03T05:48:55.675Z,228
2018-10-03T05:50:02.982Z,252
2018-10-03T05:51:11.678Z,268
2018-10-03T05:52:19.132Z,280
2018-10-03T05:53:27.879Z,300
2018-10-03T05:54:35.913Z,312
2018-10-03T05:55:43.504Z,320
2018-10-03T05:56:53.320Z,324
2018-10-03T05:58:00.044Z,336
2018-10-03T05:59:07.512Z,332
2018-10-03T06:00:16.015Z,324
2018-10-03T06:01:24.376Z,324
2018-10-03T06:02:32.402Z,308
2018-10-03T06:03:39.925Z,320
2018-10-03T06:04:48.178Z,364
2018-10-03T06:05:55.883Z,448
2018-10-03T06:07:03.946Z,536
2018-10-03T06:08:12.015Z,564
2018-10-03T06:09:20.071Z,620
2018-10-03T06:10:28.143Z,664
2018-10-03T06:11:36.199Z,656
2018-10-03T06:12:44.260Z,648
2018-10-03T06:13:52.337Z,660
2018-10-03T06:15:00.395Z,696
2018-10-03T06:16:08.752Z,716
2018-10-03T06:17:16.530Z,720
2018-10-03T06:18:24.630Z,740
2018-10-03T06:19:32.635Z,784
2018-10-03T06:20:40.881Z,824
2018-10-03T06:21:49.229Z,840
2018-10-03T06:22:56.954Z,848
2018-10-03T06:24:04.907Z,880
2018-10-03T06:25:12.937Z,936
2018-10-03T06:26:21.243Z,1012
2018-10-03T06:27:29.097Z,1120
2018-10-03T06:28:37.510Z,1252
2018-10-03T06:29:45.575Z,1348
2018-10-03T06:30:53.252Z,1380
2018-10-03T06:32:01.353Z,1384
2018-10-03T06:33:09.557Z,1412
2018-10-03T06:34:18.059Z,1464
2018-10-03T06:35:25.525Z,1488
2018-10-03T06:36:34.001Z,1508
2018-10-03T06:37:41.651Z,1520
2018-10-03T06:38:50.407Z,1532
2018-10-03T06:39:58.405Z,1568
2018-10-03T06:41:05.862Z,1640
2018-10-03T06:42:14.547Z,1708
2018-10-03T06:43:22.630Z,1776
2018-10-03T06:44:30.033Z,1792
2018-10-03T06:45:38.126Z,1736
2018-10-03T06:46:46.493Z,1672
2018-10-03T06:47:54.878Z,1824
2018-10-03T06:49:02.692Z,1996
2018-10-03T06:50:10.362Z,1948
2018-10-03T06:51:18.429Z,1808
2018-10-03T06:52:27.061Z,1884
2018-10-03T06:53:34.548Z,2016
2018-10-03T06:54:42.586Z,2008
2018-10-03T06:55:50.909Z,1980
2018-10-03T06:56:59.272Z,1984
2018-10-03T06:58:08.138Z,2036
2018-10-03T06:59:15.502Z,2136
2018-10-03T07:00:23.479Z,2248
2018-10-03T07:01:31.677Z,2344
2018-10-03T07:02:39.581Z,2400
2018-10-03T07:03:47.517Z,2432
2018-10-03T07:04:55.177Z,2528
2018-10-03T07:06:04.287Z,2684
2018-10-03T07:07:11.895Z,2772
2018-10-03T07:08:19.366Z,2920
2018-10-03T07:09:27.789Z,3220
2018-10-03T07:10:35.505Z,3452
2018-10-03T07:11:43.551Z,3400
2018-10-03T07:12:52.269Z,3364
2018-10-03T07:13:59.699Z,3416
2018-10-03T07:15:07.753Z,3480
2018-10-03T07:16:15.824Z,3424
2018-10-03T07:17:23.952Z,3212
2018-10-03T07:18:32.531Z,2996
2018-10-03T07:19:40.540Z,2988
2018-10-03T07:20:49.136Z,3092
2018-10-03T07:21:56.145Z,3304
2018-10-03T07:23:04.211Z,3644
2018-10-03T07:24:12.672Z,3984
2018-10-03T07:25:20.651Z,4332
2018-10-03T07:26:28.768Z,4572
2018-10-03T07:27:36.482Z,4716
2018-10-03T07:28:44.548Z,4856
2018-10-03T07:29:52.579Z,4900
2018-10-03T07:31:01.195Z,4848
2018-10-03T07:32:08.735Z,4744
2018-10-03T07:33:16.795Z,4776
2018-10-03T07:34:24.858Z,4848
2018-10-03T07:35:33.536Z,4892
2018-10-03T07:36:40.981Z,4816
2018-10-03T07:37:49.572Z,4584
2018-10-03T07:38:57.101Z,4408
2018-10-03T07:40:05.672Z,4376
2018-10-03T07:41:13.875Z,4388
2018-10-03T07:42:21.311Z,4356
2018-10-03T07:43:29.374Z,4116
2018-10-03T07:44:37.446Z,3832
2018-10-03T07:45:45.856Z,3672
2018-10-03T07:46:53.835Z,3468
2018-10-03T07:48:01.949Z,3092
2018-10-03T07:49:09.987Z,2740
2018-10-03T07:50:18.048Z,2528
2018-10-03T07:51:25.827Z,2420
2018-10-03T07:52:33.896Z,2460
2018-10-03T07:53:41.994Z,2636
2018-10-03T07:54:50.471Z,2860
2018-10-03T07:55:58.433Z,2968
2018-10-03T07:57:06.156Z,3036
2018-10-03T07:58:14.213Z,3064
2018-10-03T07:59:22.314Z,2956
2018-10-03T08:00:31.052Z,2820
2018-10-03T08:01:38.716Z,2680
2018-10-03T08:02:46.879Z,2516
2018-10-03T08:03:54.536Z,2396
2018-10-03T08:05:02.586Z,2292
2018-10-03T08:06:11.059Z,2216
2018-10-03T08:07:18.721Z,2228
2018-10-03T08:08:26.968Z,2376
2018-10-03T08:09:35.118Z,2724
2018-10-03T08:10:43.330Z,3020
2018-10-03T08:11:51.006Z,2936
2018-10-03T08:12:59.051Z,2744
2018-10-03T08:14:07.828Z,2760
2018-10-03T08:15:15.176Z,3032
2018-10-03T08:16:23.917Z,3240
2018-10-03T08:17:31.638Z,3360
2018-10-03T08:18:40.099Z,3556
2018-10-03T08:19:47.446Z,3584
2018-10-03T08:20:55.511Z,3404
2018-10-03T08:22:03.562Z,3320
2018-10-03T08:23:11.916Z,3396
2018-10-03T08:24:19.705Z,3532
2018-10-03T08:25:27.752Z,3892
2018-10-03T08:26:35.831Z,4012
2018-10-03T08:27:43.907Z,3804
2018-10-03T08:28:52.007Z,3664
2018-10-03T08:30:00.096Z,3984
2018-10-03T08:31:08.094Z,4496
2018-10-03T08:32:16.221Z,4352
2018-10-03T08:33:24.321Z,3856
2018-10-03T08:34:32.290Z,3700
2018-10-03T08:35:40.351Z,3540
2018-10-03T08:36:48.417Z,3348
2018-10-03T08:37:56.495Z,3336
2018-10-03T08:39:04.556Z,3356
2018-10-03T08:40:12.600Z,3652
2018-10-03T08:41:20.676Z,4400
2018-10-03T08:42:28.746Z,4980
2018-10-03T08:43:36.848Z,5380
2018-10-03T08:44:44.868Z,5576
2018-10-03T08:45:52.900Z,5564
2018-10-03T08:47:00.993Z,5476
2018-10-03T08:48:09.072Z,5692
2018-10-03T08:49:17.149Z,6024
2018-10-03T08:50:25.204Z,6364
2018-10-03T08:51:33.236Z,6224
2018-10-03T08:52:41.318Z,5400
2018-10-03T08:53:49.387Z,4416
2018-10-03T08:54:57.456Z,3940
2018-10-03T08:56:05.526Z,3972
2018-10-03T08:57:14.220Z,4272
2018-10-03T08:58:21.886Z,4576
2018-10-03T08:59:29.954Z,4544
2018-10-03T09:00:38.215Z,4228
2018-10-03T09:01:45.844Z,3932
2018-10-03T09:02:53.903Z,4064
2018-10-03T09:04:01.982Z,4680
2018-10-03T09:05:10.042Z,5892
2018-10-03T09:06:18.101Z,7644
2018-10-03T09:07:26.169Z,8512
2018-10-03T09:08:34.469Z,7800
2018-10-03T09:09:42.394Z,6756
2018-10-03T09:10:50.617Z,6260
2018-10-03T09:11:58.527Z,5832
2018-10-03T09:13:06.489Z,5560
2018-10-03T09:14:14.545Z,5484
2018-10-03T09:15:22.617Z,5972
2018-10-03T09:16:30.672Z,6996
2018-10-03T09:17:38.750Z,7216
2018-10-03T09:18:46.818Z,7216
2018-10-03T09:19:54.909Z,7680
2018-10-03T09:21:02.935Z,8460
2018-10-03T09:22:11.018Z,9712
2018-10-03T09:23:19.094Z,10748
2018-10-03T09:24:27.139Z,10772
2018-10-03T09:25:35.211Z,10852
2018-10-03T09:26:43.262Z,11084
2018-10-03T09:27:51.344Z,10696
2018-10-03T09:28:59.416Z,9936
2018-10-03T09:30:07.466Z,10144
2018-10-03T09:31:15.556Z,10624
2018-10-03T09:32:23.625Z,10780
2018-10-03T09:33:31.690Z,10800
2018-10-03T09:34:39.745Z,10560
2018-10-03T09:35:47.828Z,10244
2018-10-03T09:36:55.887Z,10084
2018-10-03T09:38:03.935Z,10020
2018-10-03T09:39:12.001Z,9952
2018-10-03T09:40:20.051Z,9708
2018-10-03T09:41:28.132Z,9180
2018-10-03T09:42:36.199Z,8684
2018-10-03T09:43:44.334Z,8576
2018-10-03T09:44:52.333Z,8840
2018-10-03T09:46:00.406Z,9064
2018-10-03T09:47:08.501Z,9256
2018-10-03T09:48:16.533Z,9784
2018-10-03T09:49:24.603Z,10440
2018-10-03T09:50:32.651Z,10788
2018-10-03T09:51:40.746Z,10916
2018-10-03T09:52:48.820Z,10952
2018-10-03T09:53:56.882Z,10660
2018-10-03T09:55:09.196Z,10332
2018-10-03T09:56:17.267Z,10244
2018-10-03T09:57:25.317Z,10120
2018-10-03T09:58:33.364Z,10036
2018-10-03T09:59:41.451Z,9952
2018-10-03T10:00:49.630Z,9820
2018-10-03T10:01:57.605Z,9784
2018-10-03T10:03:05.655Z,10140
2018-10-03T10:04:16.339Z,10156
2018-10-03T10:05:24.413Z,9792
2018-10-03T10:06:32.485Z,9720
2018-10-03T10:07:40.556Z,9620
2018-10-03T10:08:52.827Z,9880
2018-10-03T10:10:00.907Z,10096
2018-10-03T10:11:09.059Z,9916
2018-10-03T10:12:19.150Z,9724
2018-10-03T10:13:25.127Z,9680
2018-10-03T10:14:33.171Z,9736
2018-10-03T10:15:41.268Z,9996
2018-10-03T10:16:49.341Z,10312
2018-10-03T10:17:57.645Z,10840
2018-10-03T10:19:06.278Z,11392
2018-10-03T10:20:45.653Z,11280
2018-10-03T10:21:42.808Z,11144
2018-10-03T10:22:50.891Z,10880
2018-10-03T10:23:58.970Z,10372
2018-10-03T10:25:07.029Z,10296
2018-10-03T10:26:16.189Z,10472
2018-10-03T10:27:23.152Z,10804
2018-10-03T10:28:31.251Z,11152
2018-10-03T10:29:39.313Z,11216
2018-10-03T10:30:47.387Z,11092
2018-10-03T10:31:55.538Z,11056
2018-10-03T10:33:03.633Z,11352
2018-10-03T10:34:11.587Z,11728
2018-10-03T10:35:19.648Z,11868
2018-10-03T10:36:27.728Z,11836
2018-10-03T10:37:35.823Z,11880
2018-10-03T10:38:44.872Z,12148
2018-10-03T10:39:52.899Z,12240
2018-10-03T10:41:01.043Z,12932
2018-10-03T10:42:09.069Z,12632
2018-10-03T10:43:17.220Z,12852
2018-10-03T10:44:27.235Z,12492
2018-10-03T10:45:33.241Z,12116
2018-10-03T10:46:41.418Z,11520
2018-10-03T10:47:49.416Z,10532
2018-10-03T10:48:57.490Z,9520
2018-10-03T10:50:05.578Z,8696
2018-10-03T10:51:13.620Z,7604
2018-10-03T10:52:21.705Z,7376
2018-10-03T10:53:29.775Z,7896
2018-10-03T10:54:37.853Z,9556
2018-10-03T10:55:45.904Z,9980
2018-10-03T10:56:53.977Z,10484
2018-10-03T10:58:02.052Z,11016
2018-10-03T10:59:10.114Z,11400
2018-10-03T11:00:18.180Z,11668
2018-10-03T11:01:26.249Z,12368
2018-10-03T11:02:34.329Z,13172
2018-10-03T11:03:42.392Z,12896
2018-10-03T11:04:50.469Z,12996
2018-10-03T11:05:58.603Z,13124
2018-10-03T11:07:06.613Z,13348
2018-10-03T11:08:14.684Z,13564
2018-10-03T11:09:22.717Z,13696
2018-10-03T11:10:30.811Z,13880
2018-10-03T11:11:38.898Z,13480
2018-10-03T11:12:46.946Z,12952
2018-10-03T11:13:55.021Z,12900
2018-10-03T11:15:03.066Z,13188
2018-10-03T11:16:11.183Z,13160
2018-10-03T11:17:19.233Z,13116
2018-10-03T11:18:27.316Z,13304
2018-10-03T11:19:35.386Z,13420
2018-10-03T11:20:43.440Z,13444
2018-10-03T11:21:51.524Z,13412
2018-10-03T11:22:59.598Z,13316
2018-10-03T11:24:07.768Z,13004
2018-10-03T11:25:15.742Z,12820
2018-10-03T11:26:23.796Z,12516
2018-10-03T11:27:31.872Z,12312
2018-10-03T11:28:39.957Z,12004
2018-10-03T11:29:48.013Z,11648
2018-10-03T11:30:56.081Z,11748
2018-10-03T11:32:04.167Z,11880
2018-10-03T11:33:12.234Z,11876
2018-10-03T11:34:20.298Z,11748
2018-10-03T11:35:28.378Z,11748
2018-10-03T11:36:36.443Z,12000
2018-10-03T11:37:44.503Z,12008
2018-10-03T11:38:52.561Z,12024
2018-10-03T11:40:00.653Z,12044
2018-10-03T11:41:08.715Z,12104
2018-10-03T11:42:16.790Z,12280
2018-10-03T11:43:24.857Z,12040
2018-10-03T11:44:32.913Z,11412
2018-10-03T11:45:41.017Z,11404
2018-10-03T11:46:54.936Z,11296
2018-10-03T11:48:02.983Z,11244
2018-10-03T11:49:12.184Z,11012
2018-10-03T11:50:21.755Z,10908
2018-10-03T11:51:32.437Z,10928
2018-10-03T11:52:40.518Z,10956
2018-10-03T11:53:48.604Z,11188
2018-10-03T11:54:56.660Z,11164
2018-10-03T11:56:04.728Z,11284
2018-10-03T11:57:12.966Z,11596
2018-10-03T11:58:20.859Z,11960
2018-10-03T12:00:37.015Z,12060
2018-10-03T12:01:45.070Z,11832
2018-10-03T12:02:53.136Z,11460
2018-10-03T12:04:01.216Z,11536
2018-10-03T12:05:09.289Z,11456
2018-10-03T12:06:17.366Z,11380
2018-10-03T12:07:25.428Z,10952
2018-10-03T12:08:34.924Z,10052
2018-10-03T12:10:57.114Z,9924
2018-10-03T12:12:05.175Z,10184
2018-10-03T12:13:13.218Z,10300
2018-10-03T12:14:21.330Z,9664
2018-10-03T12:15:29.394Z,9492
2018-10-03T12:16:37.463Z,9616
2018-10-03T12:17:45.543Z,9804
2018-10-03T12:18:53.602Z,9916
2018-10-03T12:20:01.692Z,9440
2018-10-03T12:21:09.743Z,8632
2018-10-03T12:22:17.817Z,8312
2018-10-03T12:23:25.887Z,8448
2018-10-03T12:24:33.960Z,8816
2018-10-03T12:25:42.015Z,9060
2018-10-03T12:26:50.104Z,8748
2018-10-03T12:27:58.168Z,8844
2018-10-03T12:29:06.236Z,8700
2018-10-03T12:30:14.297Z,8720
2018-10-03T12:31:22.388Z,8952
2018-10-03T12:32:30.452Z,8568
2018-10-03T12:33:38.530Z,8380
2018-10-03T12:34:46.589Z,8344
2018-10-03T12:35:54.660Z,8400
2018-10-03T12:37:02.709Z,8288
2018-10-03T12:38:10.803Z,8032
2018-10-03T12:39:18.864Z,7832
2018-10-03T12:40:27.011Z,8032
2018-10-03T12:41:35.008Z,8672
2018-10-03T12:42:43.067Z,8164
2018-10-03T12:43:51.148Z,7040
2018-10-03T12:44:59.288Z,6380
2018-10-03T12:46:07.301Z,5872
2018-10-03T12:47:15.352Z,5128
2018-10-03T12:48:23.419Z,4656
2018-10-03T12:49:31.490Z,4572
2018-10-03T12:50:39.558Z,4548
2018-10-03T12:51:47.643Z,4632
2018-10-03T12:52:55.718Z,4520
2018-10-03T12:54:03.775Z,4920
2018-10-03T12:55:12.053Z,5908
2018-10-03T12:56:20.126Z,6944
2018-10-03T12:57:28.193Z,7376
2018-10-03T12:58:36.256Z,6768
2018-10-03T12:59:44.332Z,6120
2018-10-03T13:00:57.020Z,5696
2018-10-03T13:02:02.861Z,5820
2018-10-03T13:03:10.951Z,6500
2018-10-03T13:04:19.114Z,6948
2018-10-03T13:05:29.704Z,6580
2018-10-03T13:06:37.775Z,5744
2018-10-03T13:07:46.942Z,4780
2018-10-03T13:08:53.913Z,4260
2018-10-03T13:10:02.025Z,4108
2018-10-03T13:11:10.048Z,4448
2018-10-03T13:12:18.123Z,5056
2018-10-03T13:13:26.189Z,5276
2018-10-03T13:14:34.262Z,5520
2018-10-03T13:15:42.319Z,6204
2018-10-03T13:16:50.397Z,6968
2018-10-03T13:17:58.458Z,7108
2018-10-03T13:19:06.527Z,6656
2018-10-03T13:20:14.594Z,5936
2018-10-03T13:21:22.672Z,5696
2018-10-03T13:22:30.733Z,5784
2018-10-03T13:23:38.818Z,6380
2018-10-03T13:24:46.878Z,6776
2018-10-03T13:25:54.943Z,6976
2018-10-03T13:27:02.991Z,6672
2018-10-03T13:28:11.088Z,5820
2018-10-03T13:29:19.159Z,4992
2018-10-03T13:30:27.216Z,4432
2018-10-03T13:31:35.293Z,4208
2018-10-03T13:32:43.325Z,4320
2018-10-03T13:33:51.433Z,4488
2018-10-03T13:34:59.504Z,4732
2018-10-03T13:36:07.561Z,5196
2018-10-03T13:37:15.647Z,5836
2018-10-03T13:38:23.722Z,6328
2018-10-03T13:39:31.771Z,6656
2018-10-03T13:40:39.844Z,7276
2018-10-03T13:41:47.918Z,7948
2018-10-03T13:42:55.995Z,8132
2018-10-03T13:44:04.068Z,8040
2018-10-03T13:45:12.126Z,8184
2018-10-03T13:46:20.193Z,8176
2018-10-03T13:47:28.251Z,8240
2018-10-03T13:48:36.346Z,8348
2018-10-03T13:49:44.392Z,8376
2018-10-03T13:50:52.511Z,8404
2018-10-03T13:52:00.548Z,8524
2018-10-03T13:53:08.613Z,8508
2018-10-03T13:54:16.682Z,8332
2018-10-03T13:55:24.741Z,8312
2018-10-03T13:56:32.846Z,8096
2018-10-03T13:57:40.907Z,7680
2018-10-03T13:58:48.948Z,7468
2018-10-03T13:59:57.030Z,7268
2018-10-03T14:01:05.099Z,6944
2018-10-03T14:02:13.135Z,6776
2018-10-03T14:03:21.235Z,6784
2018-10-03T14:04:29.311Z,6764
2018-10-03T14:05:37.383Z,6748
2018-10-03T14:06:45.444Z,6536
2018-10-03T14:07:53.500Z,6020
2018-10-03T14:09:01.605Z,5440
2018-10-03T14:10:09.679Z,4816
2018-10-03T14:11:17.735Z,4192
2018-10-03T14:12:25.794Z,3732
2018-10-03T14:13:33.874Z,3676
2018-10-03T14:14:41.929Z,4020
2018-10-03T14:15:50.006Z,4576
2018-10-03T14:16:58.078Z,5196
2018-10-03T14:18:06.146Z,5584
2018-10-03T14:19:14.215Z,5740
2018-10-03T14:20:22.281Z,5644
2018-10-03T14:21:30.346Z,5464
2018-10-03T14:22:38.427Z,5152
2018-10-03T14:23:46.491Z,4796
2018-10-03T14:24:54.565Z,4476
2018-10-03T14:26:02.621Z,4204
2018-10-03T14:27:10.704Z,3984
2018-10-03T14:28:18.769Z,3784
2018-10-03T14:29:26.848Z,3688
2018-10-03T14:30:34.906Z,3704
2018-10-03T14:31:42.944Z,3728
2018-10-03T14:32:51.069Z,3764
2018-10-03T14:33:59.107Z,3808
2018-10-03T14:35:07.192Z,3932
2018-10-03T14:36:15.255Z,4156
2018-10-03T14:37:23.292Z,4364
2018-10-03T14:38:31.383Z,4592
2018-10-03T14:39:39.524Z,4816
2018-10-03T14:40:47.527Z,4984
2018-10-03T14:41:55.600Z,5104
2018-10-03T14:43:03.656Z,5104
2018-10-03T14:44:11.736Z,5084
2018-10-03T14:45:19.810Z,5128
2018-10-03T14:46:27.931Z,5016
2018-10-03T14:47:35.946Z,4856
2018-10-03T14:48:44.003Z,4812
2018-10-03T14:49:52.063Z,4768
2018-10-03T14:51:00.147Z,4704
2018-10-03T14:52:08.253Z,4620
2018-10-03T14:53:16.274Z,4456
2018-10-03T14:54:24.347Z,4200
2018-10-03T14:55:32.417Z,3888
2018-10-03T14:56:40.486Z,3720
2018-10-03T14:57:48.559Z,3792
2018-10-03T14:58:56.634Z,4004
2018-10-03T15:00:04.735Z,4248
2018-10-03T15:01:12.741Z,4388
2018-10-03T15:02:20.847Z,4324
2018-10-03T15:03:28.907Z,4104
2018-10-03T15:04:36.999Z,3840
2018-10-03T15:05:45.049Z,3604
2018-10-03T15:06:53.076Z,3340
2018-10-03T15:08:01.167Z,3052
2018-10-03T15:09:09.248Z,2780
2018-10-03T15:10:17.327Z,2624
2018-10-03T15:11:25.391Z,2576
2018-10-03T15:12:33.446Z,2632
2018-10-03T15:13:41.536Z,2672
2018-10-03T15:14:49.597Z,2716
2018-10-03T15:15:57.662Z,2704
2018-10-03T15:17:05.735Z,2620
2018-10-03T15:18:13.818Z,2644
2018-10-03T15:19:21.858Z,2768
2018-10-03T15:20:29.929Z,2832
2018-10-03T15:21:38.011Z,2976
2018-10-03T15:22:46.064Z,3132
2018-10-03T15:23:54.133Z,3280
2018-10-03T15:25:02.207Z,3416
2018-10-03T15:26:10.272Z,3544
2018-10-03T15:27:18.342Z,3636
2018-10-03T15:28:26.414Z,3732
2018-10-03T15:29:34.530Z,3708
2018-10-03T15:30:42.530Z,3564
2018-10-03T15:31:50.606Z,3500
2018-10-03T15:32:58.689Z,3568
2018-10-03T15:34:06.753Z,3608
2018-10-03T15:35:14.877Z,3620
2018-10-03T15:36:22.858Z,3608
2018-10-03T15:37:31.046Z,3548
2018-10-03T15:38:39.037Z,3508
2018-10-03T15:39:47.094Z,3472